createdAt,value
2023-07-18T00:01:17.886Z,20.22
2023-07-18T00:06:22.755Z,20.11
2023-07-18T00:11:26.600Z,20.05
2023-07-18T00:16:31.702Z,20.01
2023-07-18T00:21:35.510Z,19.99
2023-07-18T00:26:39.729Z,19.93
2023-07-18T00:31:43.615Z,19.84
2023-07-18T00:36:47.507Z,19.64
2023-07-18T00:41:51.949Z,19.33
2023-07-18T00:46:56.592Z,19.05
2023-07-18T00:52:02.552Z,18.80
2023-07-18T00:57:08.714Z,18.60
2023-07-18T01:02:14.024Z,18.46
2023-07-18T01:07:17.768Z,18.42
2023-07-18T01:12:21.662Z,18.33
2023-07-18T01:17:25.507Z,18.12
2023-07-18T01:22:29.325Z,17.98
2023-07-18T01:27:33.226Z,17.85
2023-07-18T01:32:37.619Z,17.69
2023-07-18T01:37:41.511Z,17.55
2023-07-18T01:42:45.460Z,17.38
2023-07-18T01:47:50.283Z,17.18
2023-07-18T01:52:54.526Z,16.97
2023-07-18T01:57:58.323Z,16.76
2023-07-18T02:03:03.039Z,16.53
2023-07-18T02:08:07.112Z,16.32
2023-07-18T02:13:10.925Z,16.06
2023-07-18T02:18:14.810Z,15.80
2023-07-18T02:23:18.672Z,15.52
2023-07-18T02:28:22.573Z,15.27
2023-07-18T02:33:26.629Z,15.08
2023-07-18T02:38:30.615Z,14.95
2023-07-18T02:43:34.359Z,14.83
2023-07-18T02:48:38.920Z,14.75
2023-07-18T02:53:42.604Z,14.64
2023-07-18T02:58:46.333Z,14.52
2023-07-18T03:03:50.646Z,14.41
2023-07-18T03:08:54.586Z,14.31
2023-07-18T03:13:58.369Z,14.25
2023-07-18T03:19:02.313Z,14.22
2023-07-18T03:24:09.230Z,14.21
2023-07-18T03:29:13.120Z,14.23
2023-07-18T03:34:16.937Z,14.28
2023-07-18T03:39:22.870Z,14.49
2023-07-18T03:44:26.950Z,15.32
2023-07-18T03:49:30.992Z,17.04
2023-07-18T03:54:35.535Z,18.78
2023-07-18T03:59:40.141Z,20.07
2023-07-18T04:04:44.167Z,21.33
2023-07-18T04:09:48.333Z,22.33
2023-07-18T04:14:52.580Z,22.95
2023-07-18T04:20:00.807Z,23.33
2023-07-18T04:25:04.933Z,23.31
2023-07-18T04:30:09.886Z,23.56
2023-07-18T04:35:13.878Z,23.87
2023-07-18T04:40:17.840Z,24.10
2023-07-18T04:45:21.581Z,24.38
2023-07-18T04:50:26.603Z,24.93
2023-07-18T04:55:32.224Z,25.24
2023-07-18T05:00:36.737Z,25.40
2023-07-18T05:05:41.400Z,25.45
2023-07-18T05:10:46.684Z,25.72
2023-07-18T05:15:50.750Z,25.85
2023-07-18T05:20:57.300Z,24.85
2023-07-18T05:26:01.002Z,22.51
2023-07-18T05:31:09.921Z,20.78
2023-07-18T05:36:13.836Z,19.91
2023-07-18T05:41:17.975Z,19.42
2023-07-18T05:46:22.338Z,19.13
2023-07-18T05:51:26.338Z,18.93
2023-07-18T05:56:30.141Z,18.98
2023-07-18T06:01:34.020Z,19.09
2023-07-18T06:06:38.056Z,19.22
2023-07-18T06:11:41.910Z,19.37
2023-07-18T06:16:46.739Z,19.59
2023-07-18T06:21:50.684Z,19.72
2023-07-18T06:26:54.619Z,19.89
2023-07-18T06:31:59.563Z,19.96
2023-07-18T06:37:11.441Z,20.07
2023-07-18T06:42:15.893Z,20.04
2023-07-18T06:47:19.936Z,20.13
2023-07-18T06:52:23.784Z,20.41
2023-07-18T06:57:27.580Z,20.70
2023-07-18T07:02:31.523Z,20.79
2023-07-18T07:07:35.440Z,20.93
2023-07-18T07:12:42.769Z,21.09
2023-07-18T07:17:46.579Z,21.19
2023-07-18T07:22:50.556Z,21.06
2023-07-18T07:27:55.102Z,21.03
2023-07-18T07:32:59.105Z,21.21
2023-07-18T07:38:03.547Z,21.37
2023-07-18T07:43:07.332Z,21.56
2023-07-18T07:48:11.163Z,21.83
2023-07-18T07:53:14.962Z,21.98
2023-07-18T07:58:18.603Z,21.92
2023-07-18T08:03:22.361Z,21.84
2023-07-18T08:08:26.944Z,21.93
2023-07-18T08:13:30.702Z,22.13
2023-07-18T08:18:35.957Z,22.30
2023-07-18T08:23:40.243Z,22.38
2023-07-18T08:28:43.998Z,22.30
2023-07-18T08:33:47.840Z,22.38
2023-07-18T08:38:51.762Z,22.52
2023-07-18T08:43:56.760Z,22.65
2023-07-18T08:49:01.489Z,22.91
2023-07-18T08:54:05.523Z,23.05
2023-07-18T08:59:09.471Z,23.09
2023-07-18T09:04:13.439Z,23.10
2023-07-18T09:09:22.704Z,23.30
2023-07-18T09:14:31.357Z,23.54
2023-07-18T09:19:37.254Z,23.58
2023-07-18T09:24:42.526Z,23.54
2023-07-18T09:29:47.554Z,23.64
2023-07-18T09:34:59.167Z,23.56
2023-07-18T09:40:03.767Z,23.64
2023-07-18T09:50:15.498Z,23.80
2023-07-18T09:55:28.526Z,23.89
2023-07-18T10:00:32.813Z,23.98
2023-07-18T10:05:36.517Z,23.95
2023-07-18T10:10:40.171Z,23.90
2023-07-18T10:16:17.488Z,24.01
2023-07-18T10:21:35.069Z,24.18
2023-07-18T10:26:38.903Z,24.30
2023-07-18T10:31:42.820Z,24.27
2023-07-18T10:36:59.380Z,24.41
2023-07-18T10:42:09.770Z,24.67
2023-07-18T10:47:22.212Z,24.90
2023-07-18T10:52:26.184Z,25.11
2023-07-18T10:57:31.917Z,25.26
2023-07-18T11:02:43.498Z,25.34
2023-07-18T11:07:49.573Z,25.25
2023-07-18T11:12:54.387Z,25.21
2023-07-18T11:17:58.326Z,25.21
2023-07-18T11:23:02.314Z,25.32
2023-07-18T11:28:06.386Z,25.62
2023-07-18T11:33:17.637Z,25.67
2023-07-18T11:38:24.527Z,25.76
2023-07-18T11:43:31.682Z,25.72
2023-07-18T11:48:35.852Z,25.93
2023-07-18T11:53:41.176Z,26.05
2023-07-18T11:58:45.565Z,26.20
2023-07-18T12:03:52.356Z,26.27
2023-07-18T12:08:56.138Z,26.11
2023-07-18T12:14:01.583Z,26.05
2023-07-18T12:19:05.206Z,26.05
2023-07-18T12:24:09.072Z,26.16
2023-07-18T12:29:18.363Z,26.25
2023-07-18T12:34:22.704Z,26.27
2023-07-18T12:39:26.482Z,26.31
2023-07-18T12:44:42.147Z,26.56
2023-07-18T12:54:52.731Z,26.94
2023-07-18T12:59:56.525Z,27.03
2023-07-18T13:05:03.198Z,27.05
2023-07-18T13:10:07.705Z,27.02
2023-07-18T13:15:11.718Z,27.15
2023-07-18T13:20:17.225Z,27.37
2023-07-18T13:25:21.664Z,27.46
2023-07-18T13:30:26.027Z,27.44
2023-07-18T13:35:29.924Z,27.46
2023-07-18T13:40:33.627Z,27.26
2023-07-18T13:45:37.264Z,27.27
2023-07-18T13:50:41.700Z,27.34
2023-07-18T13:55:46.357Z,27.44
2023-07-18T14:00:50.228Z,27.52
2023-07-18T14:05:54.796Z,27.45
2023-07-18T14:10:58.548Z,27.35
2023-07-18T14:16:02.607Z,27.44
2023-07-18T14:21:06.875Z,27.40
2023-07-18T14:26:10.663Z,27.55
2023-07-18T14:31:15.005Z,27.77
2023-07-18T14:36:20.649Z,27.59
2023-07-18T14:41:25.105Z,27.32
2023-07-18T14:46:28.947Z,27.26
2023-07-18T14:51:33.851Z,27.20
2023-07-18T14:56:38.702Z,27.09
2023-07-18T15:01:44.038Z,27.00
2023-07-18T15:06:47.925Z,26.86
2023-07-18T15:11:52.070Z,26.69
2023-07-18T15:16:58.625Z,26.55
2023-07-18T15:22:03.167Z,26.58
2023-07-18T15:27:06.917Z,26.73
2023-07-18T15:32:10.715Z,26.82
2023-07-18T15:37:14.424Z,26.94
2023-07-18T15:42:19.257Z,27.11
2023-07-18T15:47:29.296Z,27.41
2023-07-18T15:52:33.258Z,27.56
2023-07-18T15:57:37.602Z,27.46
2023-07-18T16:02:41.584Z,27.23
2023-07-18T16:07:45.769Z,26.90
2023-07-18T16:12:49.636Z,26.50
2023-07-18T16:18:04.360Z,26.27
2023-07-18T16:23:08.392Z,26.33
2023-07-18T16:28:12.861Z,26.67
2023-07-18T16:33:16.981Z,27.01
2023-07-18T16:38:23.098Z,27.16
2023-07-18T16:43:28.499Z,27.25
2023-07-18T16:48:33.320Z,27.30
2023-07-18T16:53:38.300Z,27.58
2023-07-18T16:58:45.924Z,28.87
2023-07-18T17:03:49.826Z,30.18
2023-07-18T17:08:54.212Z,30.98
2023-07-18T17:13:58.109Z,31.46
2023-07-18T17:19:02.393Z,31.25
2023-07-18T17:24:07.289Z,30.71
2023-07-18T17:29:11.321Z,30.29
2023-07-18T17:34:16.225Z,29.71
2023-07-18T17:39:21.220Z,29.42
2023-07-18T17:44:25.468Z,29.15
2023-07-18T17:49:30.537Z,28.38
2023-07-18T17:54:34.616Z,27.55
2023-07-18T17:59:39.094Z,26.87
2023-07-18T18:04:43.951Z,26.21
2023-07-18T18:09:48.156Z,25.65
2023-07-18T18:14:53.406Z,25.18
2023-07-18T18:19:57.510Z,24.74
2023-07-18T18:25:01.783Z,24.36
2023-07-18T18:30:07.478Z,23.99
2023-07-18T18:35:12.827Z,23.65
2023-07-18T18:40:18.594Z,23.34
2023-07-18T18:45:26.310Z,23.01
2023-07-18T18:50:30.680Z,22.72
2023-07-18T18:55:40.033Z,22.46
2023-07-18T19:00:46.301Z,22.16
2023-07-18T19:05:50.503Z,21.83
2023-07-18T19:11:07.179Z,21.43
2023-07-18T19:16:37.717Z,21.15
2023-07-18T19:21:44.270Z,20.89
2023-07-18T19:26:50.704Z,20.67
2023-07-18T19:31:55.913Z,20.45
2023-07-18T19:37:02.694Z,20.32
2023-07-18T19:42:10.002Z,20.19
2023-07-18T19:47:14.686Z,19.95
2023-07-18T19:52:19.823Z,19.74
2023-07-18T19:57:25.515Z,19.49
2023-07-18T20:02:30.530Z,19.14
2023-07-18T20:07:34.639Z,18.77
2023-07-18T20:12:38.882Z,18.54
2023-07-18T20:17:43.377Z,18.34
2023-07-18T20:22:47.793Z,18.10
2023-07-18T20:27:55.228Z,17.92
2023-07-18T20:33:00.338Z,17.73
2023-07-18T20:38:05.617Z,17.51
2023-07-18T20:43:10.232Z,17.31
2023-07-18T20:48:15.159Z,17.05
2023-07-18T20:53:19.592Z,16.80
2023-07-18T20:58:24.577Z,16.58
2023-07-18T21:03:29.280Z,16.38
2023-07-18T21:08:33.210Z,16.26
2023-07-18T21:13:37.009Z,16.30
2023-07-18T21:18:40.816Z,16.47
2023-07-18T21:23:44.749Z,16.47
2023-07-18T21:29:03.104Z,16.36
2023-07-18T21:34:08.850Z,16.26
2023-07-18T21:39:12.610Z,16.17
2023-07-18T21:44:16.356Z,16.09
2023-07-18T21:49:20.173Z,15.98
2023-07-18T21:54:23.931Z,15.92
2023-07-18T21:59:27.688Z,15.91
2023-07-18T22:04:31.913Z,15.83
2023-07-18T22:09:36.457Z,15.82
2023-07-18T22:14:40.319Z,15.64
2023-07-18T22:19:44.633Z,15.32
2023-07-18T22:24:48.854Z,15.00
2023-07-18T22:29:53.271Z,14.91
2023-07-18T22:34:57.077Z,14.88
2023-07-18T22:40:00.896Z,14.85
2023-07-18T22:45:05.193Z,14.89
2023-07-18T22:50:09.846Z,15.03
2023-07-18T22:55:13.732Z,15.23
2023-07-18T23:00:30.379Z,15.23
2023-07-18T23:05:34.243Z,15.29
2023-07-18T23:10:37.896Z,15.43
2023-07-18T23:15:41.727Z,15.64
2023-07-18T23:20:45.868Z,15.72
2023-07-18T23:25:49.560Z,15.58
2023-07-18T23:30:53.434Z,15.42
2023-07-18T23:35:57.152Z,15.32
2023-07-18T23:41:00.975Z,15.31
2023-07-18T23:46:05.231Z,15.44
2023-07-18T23:51:08.855Z,15.46
2023-07-18T23:56:12.529Z,15.32
